Oriskany Falls, NY (13425)

2:09 PM EDT on September 18, 2014 (GMT -0400)
Deansboro, NY | Change Station
CLOSE
Current Station
Personal Weather Station
Location: Deansboro, NY
Elevation: 1158 ft
Nearby Weather Stations

Elev 1158 ft 43.01 °N, 75.44 °W | Updated 24 minutes ago

Overcast
Overcast
60.4 °F
Feels Like 60.4 °F
N
5.0
Wind Variable Wind from NNW
Gusts 10.0 mph

Today
High -- | Low -- °F
--% Chance of Precip.
Yesterday
High -- | Low -- °F
Precip. -- in
6:44 AM 7:06 PM
Waning Crescent, 25% visible
Pressure 30.07 in
Visibility 10.0 miles
Clouds Few 2400 ft
Scattered Clouds 2900 ft
Mostly Cloudy 3600 ft
Dew Point 55 °F
Humidity 83%
Rainfall 0.00 in
Snow Depth Not available.
UV 2.9 out of 12
Pollen 2.60 out of 12
Air Quality Not available.
Flu Activity Not available.
METAR KRME 181753Z 03011G18KT 10SM FEW024 SCT029 BKN036 16/11 A3006 RMK AO2 SLP181 T01560106 10172 20089 53003

More Conditions Fewer Conditions

Pressure 30.07 in
Visibility 10.0 miles
Clouds Few 2400 ft
Scattered Clouds 2900 ft
Mostly Cloudy 3600 ft
Dew Point 55 °F
Humidity 83%
Rainfall 0.00 in
Snow Depth Not available.
UV 2.9 out of 12
Pollen 2.60 out of 12
Air Quality Not available.
Flu Activity Not available.
METAR KRME 181753Z 03011G18KT 10SM FEW024 SCT029 BKN036 16/11 A3006 RMK AO2 SLP181 T01560106 10172 20089 53003

More Conditions Fewer Conditions

10-Day Weather Forecast

Almanac

Astronomy

Sep. 18, 2014 Rise Set
Actual Time 6:44 AM EDT 7:06 PM EDT
Civil Twilight 6:16 AM EDT 7:34 PM EDT
Nautical Twilight 5:42 AM EDT 8:08 PM EDT
Astronomical Twilight 5:08 AM EDT 8:42 PM EDT
Moon 1:28 AM EDT 4:01 PM EDT
Length of Visible Light 13h 18m
Length of Day
12h 21m
Tomorrow will be 2m 54s shorter.
Waning Crescent, 25% of the Moon is Illuminated
Today
Waning Crescent
Sep 24
New
Oct 1
First Quarter
Oct 8
Full
Oct 15
Last Quarter

Today's Extremes

State Highs State Lows

Community

WunderPhotos

Upload Photos

1,754,410 photos uploaded!

Nearby

Air Quality

  Air Quality AQ Index Pollutant
Yesterday Good
OZONE
Yesterday Good
PM2.5
Thursday Good
PM2.5
Thursday Good
OZONE
Friday Good
OZONE
Friday Good
PM2.5

Snow Depth

Station Depth Elevation
No new snow has been reported.

Earthquake Activity

City Distance Mag. Time & Date
No recent earthquake activity has been reported nearby.
Minimum magnitude displayed is 2.5.

Coastal Water Temperatures

Place Temperature
No Stations Reporting

Nearby Weather Stations